sensor_id;sensor_type;location;lat;lon;timestamp;P1;durP1;ratioP1;P2;durP2;ratioP2
71715;SDS011;59568;52.128;5.434;2023-04-25T00:00:52;5.78;;;1.70;;
71715;SDS011;59568;52.128;5.434;2023-04-25T00:03:19;7.43;;;1.92;;
71715;SDS011;59568;52.128;5.434;2023-04-25T00:05:48;11.75;;;1.70;;
71715;SDS011;59568;52.128;5.434;2023-04-25T00:08:15;6.60;;;1.60;;
71715;SDS011;59568;52.128;5.434;2023-04-25T00:10:42;16.75;;;2.15;;
71715;SDS011;59568;52.128;5.434;2023-04-25T00:13:09;11.50;;;1.52;;
71715;SDS011;59568;52.128;5.434;2023-04-25T00:15:37;8.57;;;1.77;;
71715;SDS011;59568;52.128;5.434;2023-04-25T00:18:05;8.27;;;1.58;;
71715;SDS011;59568;52.128;5.434;2023-04-25T00:20:32;10.90;;;1.57;;
71715;SDS011;59568;52.128;5.434;2023-04-25T00:22:59;7.75;;;1.90;;
71715;SDS011;59568;52.128;5.434;2023-04-25T00:25:26;6.03;;;1.98;;
71715;SDS011;59568;52.128;5.434;2023-04-25T00:27:53;9.10;;;2.00;;
71715;SDS011;59568;52.128;5.434;2023-04-25T00:30:20;11.70;;;2.35;;
71715;SDS011;59568;52.128;5.434;2023-04-25T00:32:47;5.90;;;1.60;;
71715;SDS011;59568;52.128;5.434;2023-04-25T00:35:15;10.02;;;1.80;;
71715;SDS011;59568;52.128;5.434;2023-04-25T00:37:42;9.98;;;1.98;;
71715;SDS011;59568;52.128;5.434;2023-04-25T00:40:09;11.10;;;2.13;;
71715;SDS011;59568;52.128;5.434;2023-04-25T00:42:36;6.05;;;1.75;;
71715;SDS011;59568;52.128;5.434;2023-04-25T00:45:05;7.07;;;1.73;;
71715;SDS011;59568;52.128;5.434;2023-04-25T00:47:33;12.98;;;2.17;;
71715;SDS011;59568;52.128;5.434;2023-04-25T00:50:02;8.00;;;1.95;;
71715;SDS011;59568;52.128;5.434;2023-04-25T00:52:29;7.30;;;1.40;;
71715;SDS011;59568;52.128;5.434;2023-04-25T00:54:56;6.47;;;1.70;;
71715;SDS011;59568;52.128;5.434;2023-04-25T00:57:23;10.63;;;2.40;;
71715;SDS011;59568;52.128;5.434;2023-04-25T00:59:50;12.88;;;2.13;;
71715;SDS011;59568;52.128;5.434;2023-04-25T01:02:19;6.15;;;1.63;;
71715;SDS011;59568;52.128;5.434;2023-04-25T01:04:47;9.98;;;1.90;;
71715;SDS011;59568;52.128;5.434;2023-04-25T01:07:14;5.47;;;1.95;;
71715;SDS011;59568;52.128;5.434;2023-04-25T01:09:42;8.50;;;1.57;;
71715;SDS011;59568;52.128;5.434;2023-04-25T01:12:09;4.30;;;1.42;;
71715;SDS011;59568;52.128;5.434;2023-04-25T01:14:35;8.65;;;1.77;;
71715;SDS011;59568;52.128;5.434;2023-04-25T01:17:02;7.15;;;1.73;;
71715;SDS011;59568;52.128;5.434;2023-04-25T01:19:30;6.68;;;1.40;;
71715;SDS011;59568;52.128;5.434;2023-04-25T01:21:57;7.63;;;1.50;;
71715;SDS011;59568;52.128;5.434;2023-04-25T01:24:24;6.93;;;1.58;;
71715;SDS011;59568;52.128;5.434;2023-04-25T01:26:52;6.57;;;1.50;;
71715;SDS011;59568;52.128;5.434;2023-04-25T01:29:22;7.75;;;1.27;;
71715;SDS011;59568;52.128;5.434;2023-04-25T01:31:51;6.72;;;1.40;;
71715;SDS011;59568;52.128;5.434;2023-04-25T01:34:19;7.27;;;1.67;;
71715;SDS011;59568;52.128;5.434;2023-04-25T01:36:47;6.55;;;1.45;;
71715;SDS011;59568;52.128;5.434;2023-04-25T01:39:19;7.80;;;1.73;;
71715;SDS011;59568;52.128;5.434;2023-04-25T01:41:47;4.90;;;1.17;;
71715;SDS011;59568;52.128;5.434;2023-04-25T01:44:14;7.10;;;1.92;;
71715;SDS011;59568;52.128;5.434;2023-04-25T01:46:41;9.40;;;2.03;;
71715;SDS011;59568;52.128;5.434;2023-04-25T01:49:09;9.07;;;1.85;;
71715;SDS011;59568;52.128;5.434;2023-04-25T01:51:35;16.25;;;1.92;;
71715;SDS011;59568;52.128;5.434;2023-04-25T01:54:03;15.52;;;1.88;;
71715;SDS011;59568;52.128;5.434;2023-04-25T01:56:30;8.50;;;1.88;;
71715;SDS011;59568;52.128;5.434;2023-04-25T01:58:58;7.07;;;1.43;;
71715;SDS011;59568;52.128;5.434;2023-04-25T02:01:25;11.07;;;1.80;;
71715;SDS011;59568;52.128;5.434;2023-04-25T02:03:52;5.18;;;1.55;;
71715;SDS011;59568;52.128;5.434;2023-04-25T02:06:20;4.07;;;1.80;;
71715;SDS011;59568;52.128;5.434;2023-04-25T02:08:47;8.18;;;2.20;;
71715;SDS011;59568;52.128;5.434;2023-04-25T02:11:14;6.03;;;1.30;;
71715;SDS011;59568;52.128;5.434;2023-04-25T02:13:41;5.43;;;1.52;;
71715;SDS011;59568;52.128;5.434;2023-04-25T02:16:07;9.65;;;1.65;;
71715;SDS011;59568;52.128;5.434;2023-04-25T02:18:34;9.85;;;1.17;;
71715;SDS011;59568;52.128;5.434;2023-04-25T02:21:03;10.60;;;1.75;;
71715;SDS011;59568;52.128;5.434;2023-04-25T02:23:30;6.87;;;1.90;;
71715;SDS011;59568;52.128;5.434;2023-04-25T02:25:57;9.48;;;1.45;;
71715;SDS011;59568;52.128;5.434;2023-04-25T02:28:24;9.07;;;1.75;;
71715;SDS011;59568;52.128;5.434;2023-04-25T02:30:52;9.60;;;1.52;;
71715;SDS011;59568;52.128;5.434;2023-04-25T02:33:19;4.90;;;1.85;;
71715;SDS011;59568;52.128;5.434;2023-04-25T02:35:47;5.57;;;1.33;;
71715;SDS011;59568;52.128;5.434;2023-04-25T02:38:14;9.35;;;1.83;;
71715;SDS011;59568;52.128;5.434;2023-04-25T02:40:41;8.68;;;1.67;;
71715;SDS011;59568;52.128;5.434;2023-04-25T02:43:08;8.93;;;1.02;;
71715;SDS011;59568;52.128;5.434;2023-04-25T02:45:35;7.80;;;1.17;;
71715;SDS011;59568;52.128;5.434;2023-04-25T02:48:02;6.03;;;1.70;;
71715;SDS011;59568;52.128;5.434;2023-04-25T02:50:29;6.35;;;1.85;;
71715;SDS011;59568;52.128;5.434;2023-04-25T02:52:56;10.38;;;1.67;;
71715;SDS011;59568;52.128;5.434;2023-04-25T02:55:23;4.68;;;1.30;;
71715;SDS011;59568;52.128;5.434;2023-04-25T02:57:53;4.78;;;1.50;;
71715;SDS011;59568;52.128;5.434;2023-04-25T03:00:21;5.93;;;1.07;;
71715;SDS011;59568;52.128;5.434;2023-04-25T03:02:48;7.30;;;1.58;;
71715;SDS011;59568;52.128;5.434;2023-04-25T03:05:16;4.40;;;1.17;;
71715;SDS011;59568;52.128;5.434;2023-04-25T03:07:43;3.97;;;1.15;;
71715;SDS011;59568;52.128;5.434;2023-04-25T03:10:11;4.43;;;1.00;;
71715;SDS011;59568;52.128;5.434;2023-04-25T03:12:38;7.47;;;1.57;;
71715;SDS011;59568;52.128;5.434;2023-04-25T03:15:05;8.85;;;1.90;;
71715;SDS011;59568;52.128;5.434;2023-04-25T03:17:32;5.32;;;1.30;;
71715;SDS011;59568;52.128;5.434;2023-04-25T03:19:59;9.40;;;1.67;;
71715;SDS011;59568;52.128;5.434;2023-04-25T03:22:26;6.15;;;1.77;;
71715;SDS011;59568;52.128;5.434;2023-04-25T03:24:53;9.47;;;2.00;;
71715;SDS011;59568;52.128;5.434;2023-04-25T03:27:19;5.50;;;1.70;;
71715;SDS011;59568;52.128;5.434;2023-04-25T03:29:46;8.98;;;1.45;;
71715;SDS011;59568;52.128;5.434;2023-04-25T03:32:13;5.10;;;1.05;;
71715;SDS011;59568;52.128;5.434;2023-04-25T03:34:40;6.78;;;1.65;;
71715;SDS011;59568;52.128;5.434;2023-04-25T03:37:07;7.57;;;1.90;;
71715;SDS011;59568;52.128;5.434;2023-04-25T03:39:34;6.18;;;2.13;;
71715;SDS011;59568;52.128;5.434;2023-04-25T03:42:00;9.63;;;2.17;;
71715;SDS011;59568;52.128;5.434;2023-04-25T03:44:29;11.90;;;1.63;;
71715;SDS011;59568;52.128;5.434;2023-04-25T03:46:56;7.03;;;1.50;;
71715;SDS011;59568;52.128;5.434;2023-04-25T03:49:24;5.40;;;1.27;;
71715;SDS011;59568;52.128;5.434;2023-04-25T03:51:51;6.13;;;1.48;;
71715;SDS011;59568;52.128;5.434;2023-04-25T03:54:18;8.10;;;1.67;;
71715;SDS011;59568;52.128;5.434;2023-04-25T03:56:44;6.50;;;1.52;;
71715;SDS011;59568;52.128;5.434;2023-04-25T03:59:11;4.13;;;1.40;;
71715;SDS011;59568;52.128;5.434;2023-04-25T04:01:38;5.17;;;1.37;;
71715;SDS011;59568;52.128;5.434;2023-04-25T04:04:05;4.82;;;1.40;;
71715;SDS011;59568;52.128;5.434;2023-04-25T04:06:32;9.65;;;1.35;;
71715;SDS011;59568;52.128;5.434;2023-04-25T04:08:59;7.47;;;1.20;;
71715;SDS011;59568;52.128;5.434;2023-04-25T04:11:26;8.48;;;1.90;;
71715;SDS011;59568;52.128;5.434;2023-04-25T04:13:53;6.17;;;1.40;;
71715;SDS011;59568;52.128;5.434;2023-04-25T04:16:20;7.95;;;1.10;;
71715;SDS011;59568;52.128;5.434;2023-04-25T04:18:46;5.32;;;1.50;;
71715;SDS011;59568;52.128;5.434;2023-04-25T04:21:13;8.85;;;1.63;;
71715;SDS011;59568;52.128;5.434;2023-04-25T04:23:41;7.90;;;1.52;;
71715;SDS011;59568;52.128;5.434;2023-04-25T04:26:08;5.20;;;1.40;;
71715;SDS011;59568;52.128;5.434;2023-04-25T04:28:36;5.85;;;1.23;;
71715;SDS011;59568;52.128;5.434;2023-04-25T04:31:04;5.82;;;0.90;;
71715;SDS011;59568;52.128;5.434;2023-04-25T04:33:30;8.35;;;1.00;;
71715;SDS011;59568;52.128;5.434;2023-04-25T04:35:57;7.13;;;0.80;;
71715;SDS011;59568;52.128;5.434;2023-04-25T04:38:25;3.03;;;0.80;;
71715;SDS011;59568;52.128;5.434;2023-04-25T04:40:52;7.93;;;1.23;;
71715;SDS011;59568;52.128;5.434;2023-04-25T04:43:20;6.25;;;1.00;;
71715;SDS011;59568;52.128;5.434;2023-04-25T04:45:46;7.55;;;1.33;;
71715;SDS011;59568;52.128;5.434;2023-04-25T04:48:13;9.35;;;1.40;;
71715;SDS011;59568;52.128;5.434;2023-04-25T04:50:42;5.07;;;1.07;;
71715;SDS011;59568;52.128;5.434;2023-04-25T04:53:11;4.07;;;1.02;;
71715;SDS011;59568;52.128;5.434;2023-04-25T04:55:38;6.53;;;1.08;;
71715;SDS011;59568;52.128;5.434;2023-04-25T04:58:05;3.17;;;0.93;;
71715;SDS011;59568;52.128;5.434;2023-04-25T05:00:32;4.80;;;0.85;;
71715;SDS011;59568;52.128;5.434;2023-04-25T05:02:59;4.37;;;0.80;;
71715;SDS011;59568;52.128;5.434;2023-04-25T05:05:26;4.50;;;1.00;;
71715;SDS011;59568;52.128;5.434;2023-04-25T05:07:53;8.30;;;1.38;;
71715;SDS011;59568;52.128;5.434;2023-04-25T05:10:20;3.10;;;0.70;;
71715;SDS011;59568;52.128;5.434;2023-04-25T05:12:47;5.35;;;0.85;;
71715;SDS011;59568;52.128;5.434;2023-04-25T05:15:14;5.53;;;0.83;;
71715;SDS011;59568;52.128;5.434;2023-04-25T05:17:41;5.00;;;0.98;;
71715;SDS011;59568;52.128;5.434;2023-04-25T05:20:08;6.65;;;0.82;;
71715;SDS011;59568;52.128;5.434;2023-04-25T05:22:35;4.65;;;0.82;;
71715;SDS011;59568;52.128;5.434;2023-04-25T05:25:02;5.85;;;0.85;;
71715;SDS011;59568;52.128;5.434;2023-04-25T05:27:30;5.40;;;1.30;;
71715;SDS011;59568;52.128;5.434;2023-04-25T05:29:57;3.72;;;0.90;;
71715;SDS011;59568;52.128;5.434;2023-04-25T05:32:23;10.50;;;0.80;;
71715;SDS011;59568;52.128;5.434;2023-04-25T05:34:51;8.13;;;1.58;;
71715;SDS011;59568;52.128;5.434;2023-04-25T05:37:18;2.95;;;0.93;;
71715;SDS011;59568;52.128;5.434;2023-04-25T05:39:45;3.40;;;0.83;;
71715;SDS011;59568;52.128;5.434;2023-04-25T05:42:12;7.45;;;1.00;;
71715;SDS011;59568;52.128;5.434;2023-04-25T05:44:39;4.93;;;0.60;;
71715;SDS011;59568;52.128;5.434;2023-04-25T05:47:06;5.70;;;1.13;;
71715;SDS011;59568;52.128;5.434;2023-04-25T05:49:33;4.63;;;1.20;;
71715;SDS011;59568;52.128;5.434;2023-04-25T05:52:01;4.83;;;0.87;;
71715;SDS011;59568;52.128;5.434;2023-04-25T05:54:28;5.53;;;0.73;;
71715;SDS011;59568;52.128;5.434;2023-04-25T05:56:56;3.00;;;0.85;;
71715;SDS011;59568;52.128;5.434;2023-04-25T05:59:23;4.13;;;1.00;;
71715;SDS011;59568;52.128;5.434;2023-04-25T06:01:50;4.57;;;0.80;;
71715;SDS011;59568;52.128;5.434;2023-04-25T06:04:18;5.83;;;0.80;;
71715;SDS011;59568;52.128;5.434;2023-04-25T06:06:45;4.03;;;0.70;;
71715;SDS011;59568;52.128;5.434;2023-04-25T06:09:12;2.53;;;1.00;;
71715;SDS011;59568;52.128;5.434;2023-04-25T06:11:39;6.85;;;0.80;;
71715;SDS011;59568;52.128;5.434;2023-04-25T06:14:06;6.03;;;0.70;;
71715;SDS011;59568;52.128;5.434;2023-04-25T06:16:33;5.27;;;0.90;;
71715;SDS011;59568;52.128;5.434;2023-04-25T06:19:00;3.65;;;0.90;;
71715;SDS011;59568;52.128;5.434;2023-04-25T06:21:27;4.85;;;0.77;;
71715;SDS011;59568;52.128;5.434;2023-04-25T06:23:54;6.88;;;1.20;;
71715;SDS011;59568;52.128;5.434;2023-04-25T06:26:21;3.55;;;0.80;;
71715;SDS011;59568;52.128;5.434;2023-04-25T06:28:48;2.73;;;0.90;;
71715;SDS011;59568;52.128;5.434;2023-04-25T06:31:15;5.22;;;0.70;;
71715;SDS011;59568;52.128;5.434;2023-04-25T06:33:42;4.50;;;0.80;;
71715;SDS011;59568;52.128;5.434;2023-04-25T06:36:09;4.63;;;0.75;;
71715;SDS011;59568;52.128;5.434;2023-04-25T06:38:36;3.60;;;0.50;;
71715;SDS011;59568;52.128;5.434;2023-04-25T06:41:03;3.70;;;0.90;;
71715;SDS011;59568;52.128;5.434;2023-04-25T06:43:30;7.50;;;0.82;;
71715;SDS011;59568;52.128;5.434;2023-04-25T06:45:59;5.15;;;1.08;;
71715;SDS011;59568;52.128;5.434;2023-04-25T06:48:27;14.95;;;1.10;;
71715;SDS011;59568;52.128;5.434;2023-04-25T06:50:54;5.47;;;0.57;;
71715;SDS011;59568;52.128;5.434;2023-04-25T06:53:21;4.63;;;0.40;;
71715;SDS011;59568;52.128;5.434;2023-04-25T06:55:48;13.93;;;0.73;;
71715;SDS011;59568;52.128;5.434;2023-04-25T06:58:15;2.85;;;0.70;;
71715;SDS011;59568;52.128;5.434;2023-04-25T07:00:42;7.80;;;0.70;;
71715;SDS011;59568;52.128;5.434;2023-04-25T07:03:09;3.45;;;0.60;;
71715;SDS011;59568;52.128;5.434;2023-04-25T07:05:36;5.00;;;0.50;;
71715;SDS011;59568;52.128;5.434;2023-04-25T07:08:03;5.95;;;0.65;;
71715;SDS011;59568;52.128;5.434;2023-04-25T07:10:30;4.07;;;0.68;;
71715;SDS011;59568;52.128;5.434;2023-04-25T07:12:57;3.55;;;0.57;;
71715;SDS011;59568;52.128;5.434;2023-04-25T07:15:24;4.97;;;0.57;;
71715;SDS011;59568;52.128;5.434;2023-04-25T07:17:51;6.87;;;0.97;;
71715;SDS011;59568;52.128;5.434;2023-04-25T07:20:18;6.82;;;1.00;;
71715;SDS011;59568;52.128;5.434;2023-04-25T07:22:45;4.30;;;0.60;;
71715;SDS011;59568;52.128;5.434;2023-04-25T07:25:12;4.32;;;0.60;;
71715;SDS011;59568;52.128;5.434;2023-04-25T07:27:39;5.60;;;0.60;;
71715;SDS011;59568;52.128;5.434;2023-04-25T07:30:06;6.63;;;0.70;;
71715;SDS011;59568;52.128;5.434;2023-04-25T07:32:34;7.28;;;0.70;;
71715;SDS011;59568;52.128;5.434;2023-04-25T07:35:01;2.15;;;0.70;;
71715;SDS011;59568;52.128;5.434;2023-04-25T07:37:29;5.32;;;0.95;;
71715;SDS011;59568;52.128;5.434;2023-04-25T07:39:56;3.15;;;0.47;;
71715;SDS011;59568;52.128;5.434;2023-04-25T07:42:23;4.37;;;0.60;;
71715;SDS011;59568;52.128;5.434;2023-04-25T07:44:50;3.13;;;0.40;;
71715;SDS011;59568;52.128;5.434;2023-04-25T07:47:18;3.42;;;0.65;;
71715;SDS011;59568;52.128;5.434;2023-04-25T07:49:48;7.68;;;0.63;;
71715;SDS011;59568;52.128;5.434;2023-04-25T07:52:15;2.85;;;0.77;;
71715;SDS011;59568;52.128;5.434;2023-04-25T07:54:42;5.77;;;0.43;;
71715;SDS011;59568;52.128;5.434;2023-04-25T07:57:09;4.55;;;0.43;;
71715;SDS011;59568;52.128;5.434;2023-04-25T07:59:36;6.40;;;0.40;;
71715;SDS011;59568;52.128;5.434;2023-04-25T08:02:02;7.72;;;0.65;;
71715;SDS011;59568;52.128;5.434;2023-04-25T08:04:29;5.85;;;0.60;;
71715;SDS011;59568;52.128;5.434;2023-04-25T08:06:56;4.10;;;0.47;;
71715;SDS011;59568;52.128;5.434;2023-04-25T08:09:23;4.90;;;0.52;;
71715;SDS011;59568;52.128;5.434;2023-04-25T08:11:50;7.78;;;0.38;;
71715;SDS011;59568;52.128;5.434;2023-04-25T08:14:17;5.88;;;0.45;;
71715;SDS011;59568;52.128;5.434;2023-04-25T08:16:44;4.28;;;0.47;;
71715;SDS011;59568;52.128;5.434;2023-04-25T08:19:11;3.80;;;0.40;;
71715;SDS011;59568;52.128;5.434;2023-04-25T08:21:38;3.90;;;0.57;;
71715;SDS011;59568;52.128;5.434;2023-04-25T08:24:05;6.50;;;0.40;;
71715;SDS011;59568;52.128;5.434;2023-04-25T08:26:32;4.78;;;0.80;;
71715;SDS011;59568;52.128;5.434;2023-04-25T08:29:00;1.55;;;0.40;;
71715;SDS011;59568;52.128;5.434;2023-04-25T08:31:27;4.30;;;0.33;;
71715;SDS011;59568;52.128;5.434;2023-04-25T08:33:54;4.10;;;0.32;;
71715;SDS011;59568;52.128;5.434;2023-04-25T08:36:21;2.80;;;0.47;;
71715;SDS011;59568;52.128;5.434;2023-04-25T08:39:04;5.35;;;0.52;;
71715;SDS011;59568;52.128;5.434;2023-04-25T08:41:31;4.10;;;0.30;;
71715;SDS011;59568;52.128;5.434;2023-04-25T08:43:58;4.13;;;0.33;;
71715;SDS011;59568;52.128;5.434;2023-04-25T08:46:27;4.68;;;0.50;;
71715;SDS011;59568;52.128;5.434;2023-04-25T08:48:56;3.25;;;0.40;;
71715;SDS011;59568;52.128;5.434;2023-04-25T08:51:27;2.75;;;0.43;;
71715;SDS011;59568;52.128;5.434;2023-04-25T08:54:04;5.45;;;0.30;;
71715;SDS011;59568;52.128;5.434;2023-04-25T08:56:56;2.40;;;0.30;;
71715;SDS011;59568;52.128;5.434;2023-04-25T08:59:28;7.03;;;0.60;;
71715;SDS011;59568;52.128;5.434;2023-04-25T09:01:56;4.50;;;0.60;;
71715;SDS011;59568;52.128;5.434;2023-04-25T09:04:23;4.78;;;0.63;;
71715;SDS011;59568;52.128;5.434;2023-04-25T09:06:51;2.88;;;0.68;;
71715;SDS011;59568;52.128;5.434;2023-04-25T09:09:18;5.10;;;0.47;;
71715;SDS011;59568;52.128;5.434;2023-04-25T09:11:44;3.70;;;0.43;;
71715;SDS011;59568;52.128;5.434;2023-04-25T09:14:16;3.35;;;0.40;;
71715;SDS011;59568;52.128;5.434;2023-04-25T09:19:24;2.72;;;0.80;;
71715;SDS011;59568;52.128;5.434;2023-04-25T09:22:07;4.73;;;0.43;;
71715;SDS011;59568;52.128;5.434;2023-04-25T09:24:42;5.43;;;0.50;;
71715;SDS011;59568;52.128;5.434;2023-04-25T09:27:11;6.70;;;1.40;;
71715;SDS011;59568;52.128;5.434;2023-04-25T09:29:44;3.92;;;0.30;;
71715;SDS011;59568;52.128;5.434;2023-04-25T09:32:15;3.92;;;0.43;;
71715;SDS011;59568;52.128;5.434;2023-04-25T09:34:52;5.23;;;0.40;;
71715;SDS011;59568;52.128;5.434;2023-04-25T09:37:21;4.88;;;0.30;;
71715;SDS011;59568;52.128;5.434;2023-04-25T09:39:59;3.92;;;0.43;;
71715;SDS011;59568;52.128;5.434;2023-04-25T09:42:29;2.22;;;0.30;;
71715;SDS011;59568;52.128;5.434;2023-04-25T09:44:58;2.55;;;0.40;;
71715;SDS011;59568;52.128;5.434;2023-04-25T09:47:28;6.43;;;0.70;;
71715;SDS011;59568;52.128;5.434;2023-04-25T09:49:55;3.97;;;0.30;;
71715;SDS011;59568;52.128;5.434;2023-04-25T09:52:23;3.30;;;0.22;;
71715;SDS011;59568;52.128;5.434;2023-04-25T09:54:51;3.22;;;0.30;;
71715;SDS011;59568;52.128;5.434;2023-04-25T09:57:20;3.90;;;0.70;;
71715;SDS011;59568;52.128;5.434;2023-04-25T09:59:49;1.67;;;0.33;;
71715;SDS011;59568;52.128;5.434;2023-04-25T10:02:18;3.72;;;0.25;;
71715;SDS011;59568;52.128;5.434;2023-04-25T10:04:49;3.53;;;0.68;;
71715;SDS011;59568;52.128;5.434;2023-04-25T10:07:20;2.03;;;0.30;;
71715;SDS011;59568;52.128;5.434;2023-04-25T10:09:49;3.70;;;0.32;;
71715;SDS011;59568;52.128;5.434;2023-04-25T10:12:21;1.87;;;0.23;;
71715;SDS011;59568;52.128;5.434;2023-04-25T10:14:49;2.30;;;0.30;;
71715;SDS011;59568;52.128;5.434;2023-04-25T10:17:16;2.00;;;0.40;;
71715;SDS011;59568;52.128;5.434;2023-04-25T10:19:44;4.45;;;0.30;;
71715;SDS011;59568;52.128;5.434;2023-04-25T10:22:13;3.20;;;0.40;;
71715;SDS011;59568;52.128;5.434;2023-04-25T10:24:44;3.23;;;0.20;;
71715;SDS011;59568;52.128;5.434;2023-04-25T10:27:12;3.33;;;0.50;;
71715;SDS011;59568;52.128;5.434;2023-04-25T10:29:40;3.72;;;0.30;;
71715;SDS011;59568;52.128;5.434;2023-04-25T10:32:09;2.30;;;0.30;;
71715;SDS011;59568;52.128;5.434;2023-04-25T10:34:43;4.72;;;0.30;;
71715;SDS011;59568;52.128;5.434;2023-04-25T10:37:13;6.20;;;0.70;;
71715;SDS011;59568;52.128;5.434;2023-04-25T10:39:41;5.13;;;0.30;;
71715;SDS011;59568;52.128;5.434;2023-04-25T10:42:08;3.33;;;0.40;;
71715;SDS011;59568;52.128;5.434;2023-04-25T10:44:37;5.32;;;0.50;;
71715;SDS011;59568;52.128;5.434;2023-04-25T10:47:06;5.00;;;0.50;;
71715;SDS011;59568;52.128;5.434;2023-04-25T10:49:40;2.67;;;0.43;;
71715;SDS011;59568;52.128;5.434;2023-04-25T10:52:18;7.70;;;0.50;;
71715;SDS011;59568;52.128;5.434;2023-04-25T10:54:53;4.15;;;0.50;;
71715;SDS011;59568;52.128;5.434;2023-04-25T10:57:28;2.80;;;0.30;;
71715;SDS011;59568;52.128;5.434;2023-04-25T10:59:59;2.63;;;0.50;;
71715;SDS011;59568;52.128;5.434;2023-04-25T11:02:31;2.13;;;0.30;;
71715;SDS011;59568;52.128;5.434;2023-04-25T11:05:03;5.82;;;0.40;;
71715;SDS011;59568;52.128;5.434;2023-04-25T11:07:33;3.55;;;0.45;;
71715;SDS011;59568;52.128;5.434;2023-04-25T11:10:04;1.50;;;0.30;;
71715;SDS011;59568;52.128;5.434;2023-04-25T11:12:32;5.35;;;0.60;;
71715;SDS011;59568;52.128;5.434;2023-04-25T11:14:59;3.43;;;0.30;;
71715;SDS011;59568;52.128;5.434;2023-04-25T11:17:27;5.55;;;0.47;;
71715;SDS011;59568;52.128;5.434;2023-04-25T11:19:55;3.20;;;0.70;;
71715;SDS011;59568;52.128;5.434;2023-04-25T11:22:22;2.50;;;0.50;;
71715;SDS011;59568;52.128;5.434;2023-04-25T11:24:50;4.13;;;0.68;;
71715;SDS011;59568;52.128;5.434;2023-04-25T11:27:17;3.73;;;0.43;;
71715;SDS011;59568;52.128;5.434;2023-04-25T11:29:44;2.03;;;0.55;;
71715;SDS011;59568;52.128;5.434;2023-04-25T11:32:17;3.08;;;0.43;;
71715;SDS011;59568;52.128;5.434;2023-04-25T11:34:46;2.70;;;0.45;;
71715;SDS011;59568;52.128;5.434;2023-04-25T11:37:13;6.80;;;1.05;;
71715;SDS011;59568;52.128;5.434;2023-04-25T11:39:44;4.10;;;0.40;;
71715;SDS011;59568;52.128;5.434;2023-04-25T11:42:12;2.92;;;0.40;;
71715;SDS011;59568;52.128;5.434;2023-04-25T11:44:39;3.97;;;0.52;;
71715;SDS011;59568;52.128;5.434;2023-04-25T11:47:07;4.00;;;0.60;;
71715;SDS011;59568;52.128;5.434;2023-04-25T11:49:34;2.75;;;0.40;;
71715;SDS011;59568;52.128;5.434;2023-04-25T11:52:02;3.10;;;0.33;;
71715;SDS011;59568;52.128;5.434;2023-04-25T11:54:29;4.28;;;0.60;;
71715;SDS011;59568;52.128;5.434;2023-04-25T11:56:56;4.22;;;0.40;;
71715;SDS011;59568;52.128;5.434;2023-04-25T11:59:24;4.60;;;0.60;;
71715;SDS011;59568;52.128;5.434;2023-04-25T12:01:52;2.08;;;0.40;;
71715;SDS011;59568;52.128;5.434;2023-04-25T12:06:49;2.47;;;0.47;;
71715;SDS011;59568;52.128;5.434;2023-04-25T12:09:19;4.30;;;0.30;;
71715;SDS011;59568;52.128;5.434;2023-04-25T12:11:53;4.50;;;0.60;;
71715;SDS011;59568;52.128;5.434;2023-04-25T12:14:22;2.28;;;0.40;;
71715;SDS011;59568;52.128;5.434;2023-04-25T12:16:57;2.13;;;0.60;;
71715;SDS011;59568;52.128;5.434;2023-04-25T12:19:26;2.13;;;0.30;;
71715;SDS011;59568;52.128;5.434;2023-04-25T12:21:59;5.00;;;0.40;;
71715;SDS011;59568;52.128;5.434;2023-04-25T12:24:32;3.80;;;0.40;;
71715;SDS011;59568;52.128;5.434;2023-04-25T12:27:05;3.25;;;0.50;;
71715;SDS011;59568;52.128;5.434;2023-04-25T12:29:35;3.50;;;0.43;;
71715;SDS011;59568;52.128;5.434;2023-04-25T12:32:05;5.28;;;0.40;;
71715;SDS011;59568;52.128;5.434;2023-04-25T12:34:32;2.17;;;0.30;;
71715;SDS011;59568;52.128;5.434;2023-04-25T12:37:01;2.78;;;0.47;;
71715;SDS011;59568;52.128;5.434;2023-04-25T12:39:28;1.95;;;0.30;;
71715;SDS011;59568;52.128;5.434;2023-04-25T12:41:55;4.47;;;0.30;;
71715;SDS011;59568;52.128;5.434;2023-04-25T12:44:22;2.67;;;0.52;;
71715;SDS011;59568;52.128;5.434;2023-04-25T12:46:49;2.70;;;0.45;;
71715;SDS011;59568;52.128;5.434;2023-04-25T12:49:16;3.05;;;0.40;;
71715;SDS011;59568;52.128;5.434;2023-04-25T12:51:44;1.48;;;0.35;;
71715;SDS011;59568;52.128;5.434;2023-04-25T12:54:11;1.87;;;0.40;;
71715;SDS011;59568;52.128;5.434;2023-04-25T12:56:38;3.00;;;0.30;;
71715;SDS011;59568;52.128;5.434;2023-04-25T12:59:07;2.45;;;0.40;;
71715;SDS011;59568;52.128;5.434;2023-04-25T13:01:34;3.95;;;0.50;;
71715;SDS011;59568;52.128;5.434;2023-04-25T13:04:02;5.63;;;0.40;;
71715;SDS011;59568;52.128;5.434;2023-04-25T13:06:29;3.17;;;0.30;;
71715;SDS011;59568;52.128;5.434;2023-04-25T13:08:57;1.83;;;0.30;;
71715;SDS011;59568;52.128;5.434;2023-04-25T13:11:24;1.55;;;0.30;;
71715;SDS011;59568;52.128;5.434;2023-04-25T13:13:51;2.95;;;0.40;;
71715;SDS011;59568;52.128;5.434;2023-04-25T13:16:19;2.90;;;0.32;;
71715;SDS011;59568;52.128;5.434;2023-04-25T13:18:47;2.47;;;0.70;;
71715;SDS011;59568;52.128;5.434;2023-04-25T13:21:15;2.75;;;0.40;;
71715;SDS011;59568;52.128;5.434;2023-04-25T13:23:42;4.72;;;0.52;;
71715;SDS011;59568;52.128;5.434;2023-04-25T13:26:13;4.13;;;0.40;;
71715;SDS011;59568;52.128;5.434;2023-04-25T13:28:40;4.30;;;0.45;;
71715;SDS011;59568;52.128;5.434;2023-04-25T13:31:10;3.03;;;0.33;;
71715;SDS011;59568;52.128;5.434;2023-04-25T13:33:37;2.88;;;0.30;;
71715;SDS011;59568;52.128;5.434;2023-04-25T13:36:04;2.10;;;0.43;;
71715;SDS011;59568;52.128;5.434;2023-04-25T13:38:32;2.92;;;0.45;;
71715;SDS011;59568;52.128;5.434;2023-04-25T13:40:59;3.92;;;0.40;;
71715;SDS011;59568;52.128;5.434;2023-04-25T13:43:27;4.53;;;0.30;;
71715;SDS011;59568;52.128;5.434;2023-04-25T13:45:55;2.85;;;0.35;;
71715;SDS011;59568;52.128;5.434;2023-04-25T13:48:23;3.33;;;0.57;;
71715;SDS011;59568;52.128;5.434;2023-04-25T13:50:50;1.65;;;0.40;;
71715;SDS011;59568;52.128;5.434;2023-04-25T13:53:17;3.33;;;0.30;;
71715;SDS011;59568;52.128;5.434;2023-04-25T13:55:44;4.77;;;0.40;;
71715;SDS011;59568;52.128;5.434;2023-04-25T13:58:12;5.03;;;0.70;;
71715;SDS011;59568;52.128;5.434;2023-04-25T14:00:39;1.38;;;0.30;;
71715;SDS011;59568;52.128;5.434;2023-04-25T14:03:08;2.53;;;0.35;;
71715;SDS011;59568;52.128;5.434;2023-04-25T14:05:36;2.88;;;0.40;;
71715;SDS011;59568;52.128;5.434;2023-04-25T14:08:05;3.23;;;0.40;;
71715;SDS011;59568;52.128;5.434;2023-04-25T14:10:33;3.55;;;0.50;;
71715;SDS011;59568;52.128;5.434;2023-04-25T14:13:02;3.00;;;0.40;;
71715;SDS011;59568;52.128;5.434;2023-04-25T14:15:33;4.53;;;0.40;;
71715;SDS011;59568;52.128;5.434;2023-04-25T14:18:01;1.70;;;0.40;;
71715;SDS011;59568;52.128;5.434;2023-04-25T14:20:28;3.43;;;0.50;;
71715;SDS011;59568;52.128;5.434;2023-04-25T14:22:56;3.80;;;0.40;;
71715;SDS011;59568;52.128;5.434;2023-04-25T14:25:24;1.92;;;0.52;;
71715;SDS011;59568;52.128;5.434;2023-04-25T14:27:52;3.90;;;0.77;;
71715;SDS011;59568;52.128;5.434;2023-04-25T14:30:19;2.63;;;0.55;;
71715;SDS011;59568;52.128;5.434;2023-04-25T14:32:48;2.70;;;0.40;;
71715;SDS011;59568;52.128;5.434;2023-04-25T14:35:16;2.58;;;0.47;;
71715;SDS011;59568;52.128;5.434;2023-04-25T14:37:43;2.85;;;0.60;;
71715;SDS011;59568;52.128;5.434;2023-04-25T14:40:11;3.85;;;0.63;;
71715;SDS011;59568;52.128;5.434;2023-04-25T14:42:39;2.47;;;0.35;;
71715;SDS011;59568;52.128;5.434;2023-04-25T14:45:07;2.40;;;0.33;;
71715;SDS011;59568;52.128;5.434;2023-04-25T14:47:38;3.42;;;0.50;;
71715;SDS011;59568;52.128;5.434;2023-04-25T14:50:06;1.73;;;0.30;;
71715;SDS011;59568;52.128;5.434;2023-04-25T14:52:35;4.75;;;0.77;;
71715;SDS011;59568;52.128;5.434;2023-04-25T14:55:02;3.28;;;0.43;;
71715;SDS011;59568;52.128;5.434;2023-04-25T14:57:32;1.70;;;0.37;;